Terminal Aerodrome Forecast
Issued by NWS

Home | Current Version | Previous Version | Text Only | Print | Product List | Glossary On
Versions: 1 2 3 4 5 6 7 8 9 10 11 12 13
000
FTUS46 KSEW 160500
TAFBFI
TAF
KBFI 160520Z 1606/1706 19006KT P6SM VCSH SCT035 OVC050
     FM160800 16010KT P6SM -RA OVC030
     FM162000 16012KT 5SM -RA BR OVC022
     FM170500 16010KT P6SM -RA OVC028=

USA.gov is the U.S. government's official web portal to all federal, state and local government web resources and services.